Time;durP1;ratioP1;P1;durP2;ratioP2;P2;SDS_P1;SDS_P2;PMS_P1;PMS_P2;Temp;Humidity;BMP_temperature;BMP_pressure;BME280_temperature;BME280_humidity;BME280_pressure;Samples;Min_cycle;Max_cycle;Signal;HPM_P1;HPM_P2
2023/01/16 00:02:05;;;;;;;6.75;4.68;;;4.80;99.90;;;;;;5002091;28;20048;-88
2023/01/16 00:04:33;;;;;;;6.57;4.75;;;4.80;99.90;;;;;;5035188;28;20128;-89
2023/01/16 00:06:59;;;;;;;7.28;4.50;;;4.80;99.90;;;;;;5019494;28;20038;-88
2023/01/16 00:09:25;;;;;;;5.53;4.47;;;4.70;99.90;;;;;;5002971;28;20465;-88
2023/01/16 00:11:50;;;;;;;10.45;4.50;;;4.70;99.90;;;;;;5017642;28;20508;-88
2023/01/16 00:14:16;;;;;;;9.43;4.32;;;4.60;99.90;;;;;;5018205;28;20034;-88
2023/01/16 00:16:42;;;;;;;7.82;4.07;;;4.70;99.90;;;;;;5005030;28;20084;-88
2023/01/16 00:19:07;;;;;;;7.60;4.60;;;4.60;99.90;;;;;;5002223;28;20492;-87
2023/01/16 00:21:33;;;;;;;8.32;3.85;;;4.50;99.90;;;;;;5019930;28;20298;-87
2023/01/16 00:24:02;;;;;;;8.13;4.05;;;4.40;99.90;;;;;;5002592;28;20088;-87
2023/01/16 00:26:29;;;;;;;5.90;4.30;;;4.40;99.90;;;;;;5017109;28;20353;-87
2023/01/16 00:28:55;;;;;;;8.00;4.05;;;4.30;99.90;;;;;;5006221;28;20033;-87
2023/01/16 00:31:23;;;;;;;8.75;4.15;;;4.20;99.90;;;;;;5002705;28;20068;-87
2023/01/16 00:33:48;;;;;;;6.97;3.65;;;4.20;99.90;;;;;;5002662;28;20502;-87
2023/01/16 00:36:16;;;;;;;7.68;3.53;;;4.00;99.90;;;;;;5017503;28;20034;-88
2023/01/16 00:38:42;;;;;;;9.25;4.00;;;4.10;99.90;;;;;;5000580;28;20045;-88
2023/01/16 00:41:08;;;;;;;8.32;3.60;;;4.00;99.90;;;;;;5015780;28;20047;-88
2023/01/16 00:43:34;;;;;;;7.22;3.80;;;4.00;99.90;;;;;;5003567;28;21473;-86
2023/01/16 00:46:00;;;;;;;8.25;4.20;;;3.80;99.90;;;;;;5002300;28;20049;-88
2023/01/16 00:48:25;;;;;;;7.68;3.60;;;3.70;99.90;;;;;;5003001;28;20030;-88
2023/01/16 00:50:51;;;;;;;8.88;4.05;;;3.70;99.90;;;;;;5017444;28;20152;-88
2023/01/16 00:53:17;;;;;;;8.40;3.83;;;3.70;99.90;;;;;;5016885;28;20224;-88
2023/01/16 00:55:43;;;;;;;6.38;3.35;;;3.70;99.90;;;;;;5002853;28;20504;-89
2023/01/16 00:58:09;;;;;;;9.13;3.70;;;3.50;99.90;;;;;;5000972;28;20144;-88
2023/01/16 01:00:35;;;;;;;8.48;4.00;;;3.50;99.90;;;;;;5000316;28;20344;-87
2023/01/16 01:03:02;;;;;;;8.00;3.95;;;3.60;99.90;;;;;;5015583;28;20045;-88
2023/01/16 01:05:28;;;;;;;8.73;3.45;;;3.40;99.90;;;;;;5004531;28;20057;-87
2023/01/16 01:07:53;;;;;;;5.35;3.47;;;3.30;99.90;;;;;;5005166;28;20049;-87
2023/01/16 01:10:19;;;;;;;7.32;3.42;;;3.50;99.90;;;;;;5002056;28;20038;-87
2023/01/16 01:12:48;;;;;;;10.07;3.60;;;3.40;99.90;;;;;;5018528;28;20102;-88
2023/01/16 01:15:13;;;;;;;7.38;3.75;;;3.30;99.90;;;;;;5000058;28;20099;-87
2023/01/16 01:17:39;;;;;;;8.38;3.20;;;3.40;99.90;;;;;;5002391;28;20477;-88
2023/01/16 01:20:05;;;;;;;7.15;3.55;;;3.30;99.90;;;;;;5003553;28;20048;-88
2023/01/16 01:22:31;;;;;;;7.47;3.65;;;3.40;99.90;;;;;;5001522;28;20568;-87
2023/01/16 01:25:00;;;;;;;7.22;3.38;;;3.30;99.90;;;;;;5015025;28;20144;-87
2023/01/16 01:27:25;;;;;;;6.22;3.17;;;3.30;99.90;;;;;;5003810;28;20045;-88
2023/01/16 01:29:54;;;;;;;11.38;4.15;;;3.30;99.90;;;;;;5001851;28;20052;-87
2023/01/16 01:32:20;;;;;;;8.40;3.75;;;3.30;99.90;;;;;;5001931;28;20049;-88
2023/01/16 01:34:45;;;;;;;8.45;3.72;;;3.30;99.90;;;;;;5001921;28;20041;-87
2023/01/16 01:37:11;;;;;;;6.75;3.70;;;3.30;99.90;;;;;;5003761;28;20132;-88
2023/01/16 01:39:37;;;;;;;8.05;3.85;;;3.10;99.90;;;;;;5002145;28;20120;-88
2023/01/16 01:45:13;;;;;;;7.60;4.03;;;3.20;99.90;;;;;;5017184;28;20052;-88
2023/01/16 01:47:44;;;;;;;7.88;3.83;;;3.00;99.90;;;;;;4996390;28;20049;-88
2023/01/16 01:50:45;;;;;;;9.98;4.28;;;3.10;99.90;;;;;;5017878;28;20132;-88
2023/01/16 01:53:24;;;;;;;8.77;3.75;;;3.00;99.90;;;;;;5001640;28;20069;-88
2023/01/16 01:55:50;;;;;;;5.45;3.72;;;3.20;99.90;;;;;;5016059;28;20638;-87
2023/01/16 01:58:22;;;;;;;8.05;3.88;;;3.30;99.90;;;;;;5000595;28;20041;-85
2023/01/16 02:00:52;;;;;;;7.30;3.75;;;3.40;99.90;;;;;;5002948;28;20069;-87
2023/01/16 02:03:25;;;;;;;12.73;4.53;;;3.50;99.90;;;;;;5015017;28;20045;-88
2023/01/16 02:05:59;;;;;;;8.32;4.28;;;3.50;99.90;;;;;;5003138;28;20092;-88
2023/01/16 02:08:30;;;;;;;7.65;4.05;;;3.40;99.90;;;;;;5000045;28;20095;-88
2023/01/16 02:11:28;;;;;;;9.43;4.00;;;3.60;99.90;;;;;;5016744;28;20170;-87
2023/01/16 02:14:00;;;;;;;9.10;4.13;;;3.70;99.90;;;;;;5012286;28;20057;-87
2023/01/16 02:19:37;;;;;;;7.82;3.88;;;3.80;99.90;;;;;;5013837;28;20044;-87
2023/01/16 02:22:28;;;;;;;11.23;4.03;;;3.80;99.90;;;;;;5012226;28;20202;-88
2023/01/16 02:25:32;;;;;;;9.23;3.53;;;4.00;99.90;;;;;;5014331;28;20582;-87
2023/01/16 02:28:10;;;;;;;9.55;4.28;;;4.00;99.90;;;;;;5001157;28;20562;-88
2023/01/16 02:31:13;;;;;;;6.15;3.40;;;4.20;99.90;;;;;;5027941;28;20038;-87
2023/01/16 02:34:20;;;;;;;6.60;3.28;;;4.20;99.90;;;;;;5016535;28;20534;-87
2023/01/16 02:37:04;;;;;;;6.40;3.15;;;4.10;99.90;;;;;;5021387;28;20385;-87
2023/01/16 02:39:51;;;;;;;8.55;3.72;;;4.10;99.90;;;;;;5019345;28;20580;-88
2023/01/16 02:42:36;;;;;;;12.63;3.50;;;4.20;99.90;;;;;;5004392;28;20118;-89
2023/01/16 02:45:27;;;;;;;7.45;3.50;;;4.20;99.90;;;;;;5004776;28;20153;-88
2023/01/16 02:48:05;;;;;;;8.43;3.42;;;4.30;99.90;;;;;;4965793;28;20413;-88
2023/01/16 02:50:51;;;;;;;9.80;3.50;;;4.40;99.90;;;;;;5014494;28;20029;-88
2023/01/16 02:53:28;;;;;;;10.88;3.30;;;4.30;99.90;;;;;;5035840;28;20046;-87
2023/01/16 02:56:02;;;;;;;7.03;3.17;;;4.20;99.90;;;;;;5004183;28;20432;-87
2023/01/16 02:58:31;;;;;;;7.05;3.15;;;4.40;99.90;;;;;;5019531;28;20044;-89
2023/01/16 03:00:59;;;;;;;11.20;3.75;;;4.30;99.90;;;;;;5004191;28;20687;-88
2023/01/16 03:03:52;;;;;;;8.70;3.55;;;4.30;99.90;;;;;;5001130;28;20436;-89
2023/01/16 03:06:27;;;;;;;10.65;3.20;;;4.40;99.90;;;;;;5005966;28;20041;-88
2023/01/16 03:09:06;;;;;;;6.55;3.28;;;4.30;99.90;;;;;;5018008;28;20136;-88
2023/01/16 03:11:41;;;;;;;7.78;3.22;;;4.30;99.90;;;;;;5003619;28;20440;-88
2023/01/16 03:14:14;;;;;;;7.43;3.10;;;4.10;99.90;;;;;;5009219;28;20045;-88
2023/01/16 03:17:08;;;;;;;7.82;3.25;;;4.00;99.90;;;;;;5002914;28;20037;-88
2023/01/16 03:19:41;;;;;;;6.25;3.20;;;4.00;99.90;;;;;;5006892;28;20137;-88
2023/01/16 03:22:35;;;;;;;6.53;3.15;;;3.80;99.90;;;;;;5019733;28;20401;-88
2023/01/16 03:25:04;;;;;;;10.02;3.40;;;3.80;99.90;;;;;;5005340;28;20477;-88
2023/01/16 03:27:49;;;;;;;6.68;3.40;;;3.70;99.90;;;;;;5004579;28;20041;-89
2023/01/16 03:30:47;;;;;;;8.15;3.70;;;3.80;99.90;;;;;;5001750;28;20045;-89
2023/01/16 03:33:34;;;;;;;11.30;3.50;;;3.80;99.90;;;;;;5005586;28;20156;-88
2023/01/16 03:36:11;;;;;;;8.07;3.35;;;3.70;99.90;;;;;;5005393;28;20716;-87
2023/01/16 03:38:44;;;;;;;7.03;3.47;;;3.80;99.90;;;;;;5004823;28;20511;-87
2023/01/16 03:41:15;;;;;;;6.63;3.15;;;3.80;99.90;;;;;;5020298;28;20051;-89
2023/01/16 03:43:44;;;;;;;12.85;3.47;;;3.70;99.90;;;;;;5004734;28;20469;-88
2023/01/16 03:46:18;;;;;;;12.20;2.90;;;3.60;99.90;;;;;;5034675;28;20048;-88
2023/01/16 03:49:05;;;;;;;6.95;3.38;;;3.80;99.90;;;;;;5005244;28;20050;-88
2023/01/16 03:51:36;;;;;;;7.57;3.33;;;3.70;99.90;;;;;;5003071;28;20910;-88
2023/01/16 03:54:40;;;;;;;6.88;3.22;;;3.80;99.90;;;;;;5019594;28;20038;-87
2023/01/16 03:57:29;;;;;;;7.43;3.33;;;3.80;99.90;;;;;;5014652;28;20128;-88
2023/01/16 03:59:55;;;;;;;11.80;3.70;;;4.00;99.90;;;;;;5002794;28;20412;-87
2023/01/16 04:02:46;;;;;;;8.13;3.67;;;4.00;99.90;;;;;;5005063;28;20033;-87
2023/01/16 04:05:15;;;;;;;8.73;3.83;;;3.90;99.90;;;;;;5019377;28;20034;-88
2023/01/16 04:07:57;;;;;;;9.32;4.38;;;4.20;99.90;;;;;;5002987;28;20419;-88
2023/01/16 04:10:30;;;;;;;9.55;4.20;;;4.30;99.90;;;;;;5003947;28;20381;-88
2023/01/16 04:13:07;;;;;;;7.85;4.05;;;4.30;99.90;;;;;;5004214;28;20041;-88
2023/01/16 04:15:35;;;;;;;8.75;4.72;;;4.30;99.90;;;;;;5002008;28;20216;-88
2023/01/16 04:18:01;;;;;;;11.82;5.50;;;4.20;99.90;;;;;;5003877;28;20076;-88
2023/01/16 04:20:29;;;;;;;7.55;4.63;;;4.30;99.90;;;;;;5003186;28;20081;-88
2023/01/16 04:22:58;;;;;;;9.45;4.70;;;4.30;99.90;;;;;;5001292;28;20095;-88
2023/01/16 04:25:24;;;;;;;15.07;5.25;;;4.30;99.90;;;;;;5017207;28;20057;-89
2023/01/16 04:27:49;;;;;;;8.88;5.63;;;4.30;99.90;;;;;;5003299;28;20045;-88
2023/01/16 04:30:15;;;;;;;12.23;5.53;;;4.30;99.90;;;;;;5003134;28;20033;-88
2023/01/16 04:32:42;;;;;;;9.40;5.65;;;4.30;99.90;;;;;;5002692;28;20064;-87
2023/01/16 04:35:08;;;;;;;11.70;5.95;;;4.30;99.90;;;;;;5003048;28;20037;-87
2023/01/16 04:37:34;;;;;;;10.25;5.97;;;4.30;99.90;;;;;;5002439;28;20046;-87
2023/01/16 04:40:00;;;;;;;12.82;6.13;;;4.40;99.90;;;;;;5003698;28;20045;-88
2023/01/16 04:42:26;;;;;;;12.15;5.97;;;4.40;99.90;;;;;;5002459;28;20060;-88
2023/01/16 04:44:52;;;;;;;12.50;6.00;;;4.50;99.90;;;;;;5004062;28;20049;-87
2023/01/16 04:47:17;;;;;;;13.18;6.40;;;4.40;99.90;;;;;;5017302;28;20045;-87
2023/01/16 04:49:43;;;;;;;11.20;6.60;;;4.40;99.90;;;;;;5005028;28;20041;-86
2023/01/16 04:52:11;;;;;;;11.45;6.78;;;4.40;99.90;;;;;;5018133;28;20292;-88
2023/01/16 04:54:37;;;;;;;15.27;7.15;;;4.40;99.90;;;;;;5003747;28;20524;-86
2023/01/16 04:57:05;;;;;;;11.57;6.45;;;4.60;99.90;;;;;;5018202;28;20049;-89
2023/01/16 04:59:31;;;;;;;19.48;7.43;;;4.50;99.90;;;;;;5002385;28;20263;-87
2023/01/16 05:01:57;;;;;;;10.73;7.03;;;4.50;99.90;;;;;;5003760;28;20064;-88
2023/01/16 05:04:23;;;;;;;15.90;7.63;;;4.60;99.90;;;;;;5004151;28;20512;-87
2023/01/16 05:06:48;;;;;;;13.77;7.63;;;4.60;99.90;;;;;;5019511;28;20045;-87
2023/01/16 05:09:14;;;;;;;14.38;7.97;;;4.70;99.90;;;;;;5016298;28;20140;-88
2023/01/16 05:11:40;;;;;;;16.77;9.15;;;4.60;99.90;;;;;;5001974;28;20128;-88
2023/01/16 05:14:07;;;;;;;13.52;8.52;;;4.60;99.90;;;;;;5004159;28;20029;-87
2023/01/16 05:16:38;;;;;;;16.15;8.88;;;4.60;99.90;;;;;;5021656;28;20397;-88
2023/01/16 05:19:04;;;;;;;17.58;9.43;;;4.70;99.90;;;;;;5003973;28;20539;-87
2023/01/16 05:21:30;;;;;;;16.35;8.68;;;4.60;99.90;;;;;;5003186;28;20042;-88
2023/01/16 05:23:56;;;;;;;16.70;9.27;;;4.50;99.90;;;;;;5015995;28;20045;-88
2023/01/16 05:26:22;;;;;;;14.80;8.70;;;4.50;99.90;;;;;;5000136;28;20523;-88
2023/01/16 05:28:51;;;;;;;15.20;9.30;;;4.30;99.90;;;;;;5000793;28;20389;-88
2023/01/16 05:31:17;;;;;;;19.45;10.15;;;4.40;99.90;;;;;;5019645;28;20645;-87
2023/01/16 05:33:42;;;;;;;14.18;8.73;;;4.20;99.90;;;;;;5019890;28;20029;-89
2023/01/16 05:36:08;;;;;;;15.00;9.60;;;4.10;99.90;;;;;;4999997;28;20041;-86
2023/01/16 05:38:34;;;;;;;15.23;9.40;;;3.90;99.90;;;;;;4999219;28;20041;-89
2023/01/16 05:41:00;;;;;;;18.85;9.70;;;3.90;99.90;;;;;;5001924;28;20068;-88
2023/01/16 05:43:26;;;;;;;17.38;10.20;;;3.80;99.90;;;;;;5004709;28;20073;-88
2023/01/16 05:45:52;;;;;;;14.52;9.43;;;3.70;99.90;;;;;;5001377;28;20041;-87
2023/01/16 05:48:20;;;;;;;16.10;10.15;;;3.70;99.90;;;;;;4999766;28;20041;-87
2023/01/16 05:50:46;;;;;;;16.35;10.15;;;3.70;99.90;;;;;;5018236;28;20036;-87
2023/01/16 05:53:11;;;;;;;16.88;10.45;;;3.70;99.90;;;;;;5015263;28;20135;-88
2023/01/16 05:55:46;;;;;;;16.42;10.65;;;3.70;99.90;;;;;;5000026;28;20144;-87
2023/01/16 05:58:13;;;;;;;18.67;10.85;;;3.60;99.90;;;;;;5017612;28;20050;-87
2023/01/16 06:00:40;;;;;;;23.17;10.60;;;3.40;99.90;;;;;;5016965;28;20056;-88
2023/01/16 06:03:06;;;;;;;23.52;11.30;;;3.50;99.90;;;;;;5017834;28;20045;-88
2023/01/16 06:05:32;;;;;;;18.80;11.32;;;3.40;99.90;;;;;;5001610;28;20041;-87
2023/01/16 06:07:58;;;;;;;20.00;11.15;;;3.40;99.90;;;;;;5002804;28;20052;-87
2023/01/16 06:10:25;;;;;;;22.63;11.45;;;3.60;99.90;;;;;;5016100;28;20385;-89
2023/01/16 06:12:50;;;;;;;19.75;12.50;;;3.40;99.90;;;;;;5000179;28;20041;-87
2023/01/16 06:15:17;;;;;;;21.48;12.02;;;3.60;99.90;;;;;;5003995;28;20033;-87
2023/01/16 06:17:42;;;;;;;23.75;12.50;;;3.60;99.90;;;;;;5016529;28;20053;-88
2023/01/16 06:20:09;;;;;;;23.17;12.93;;;3.60;99.90;;;;;;5005653;28;20434;-87
2023/01/16 06:22:35;;;;;;;24.67;13.25;;;3.60;99.90;;;;;;5016403;28;20403;-89
2023/01/16 06:25:01;;;;;;;21.17;13.25;;;3.60;99.90;;;;;;5001263;28;20050;-87
2023/01/16 06:27:29;;;;;;;28.55;13.50;;;3.90;99.90;;;;;;5013591;28;20280;-87
2023/01/16 06:29:55;;;;;;;25.42;13.45;;;3.90;99.90;;;;;;5016495;28;20129;-87
2023/01/16 06:32:20;;;;;;;27.70;13.48;;;3.90;99.90;;;;;;5002469;28;20583;-88
2023/01/16 06:34:46;;;;;;;24.75;13.30;;;4.00;99.90;;;;;;5015472;28;20037;-87
2023/01/16 06:37:12;;;;;;;20.25;11.52;;;3.80;99.90;;;;;;5015669;28;20060;-87
2023/01/16 06:39:37;;;;;;;21.42;11.35;;;4.00;99.90;;;;;;5015570;28;20097;-88
2023/01/16 06:42:04;;;;;;;18.27;10.95;;;3.90;99.90;;;;;;4998905;28;20275;-87
2023/01/16 06:44:34;;;;;;;20.85;11.35;;;3.90;99.90;;;;;;5001120;28;20091;-89
2023/01/16 06:47:00;;;;;;;19.80;10.68;;;3.80;99.90;;;;;;5017234;28;20042;-87
2023/01/16 06:49:26;;;;;;;21.63;10.60;;;3.60;99.90;;;;;;5000962;28;20033;-87
2023/01/16 06:51:52;;;;;;;18.35;10.88;;;3.60;99.90;;;;;;4999105;28;20071;-88
2023/01/16 06:54:17;;;;;;;17.88;10.32;;;3.70;99.90;;;;;;5002165;28;20040;-88
2023/01/16 06:56:43;;;;;;;20.60;10.80;;;3.80;99.90;;;;;;4998971;28;20052;-88
2023/01/16 06:59:09;;;;;;;16.75;10.10;;;3.60;99.90;;;;;;5000327;28;20080;-87
2023/01/16 07:01:38;;;;;;;18.35;10.32;;;3.60;99.90;;;;;;4999262;28;20311;-88
2023/01/16 07:04:03;;;;;;;19.20;9.27;;;3.70;99.90;;;;;;5014477;28;20036;-87
2023/01/16 07:06:29;;;;;;;20.45;9.52;;;3.60;99.90;;;;;;5015958;28;20396;-89
2023/01/16 07:08:55;;;;;;;19.77;9.57;;;3.50;99.90;;;;;;5000285;28;20500;-87
2023/01/16 07:11:20;;;;;;;16.95;9.38;;;3.70;99.90;;;;;;5015960;28;20034;-88
2023/01/16 07:13:46;;;;;;;17.35;8.82;;;3.60;99.90;;;;;;5000962;28;20037;-88
2023/01/16 07:24:37;;;;;;;16.58;8.85;;;3.50;99.90;;;;;;5018613;28;20072;-87
2023/01/16 07:27:05;;;;;;;21.35;8.98;;;3.40;99.90;;;;;;5015892;28;20081;-87
2023/01/16 07:29:33;;;;;;;15.93;8.38;;;3.60;99.90;;;;;;5003865;28;20517;-88
2023/01/16 07:32:03;;;;;;;15.65;8.27;;;3.50;99.90;;;;;;5005197;28;20038;-87
2023/01/16 07:34:29;;;;;;;16.98;8.57;;;3.40;99.90;;;;;;5004709;28;20041;-88
2023/01/16 07:36:55;;;;;;;16.83;8.40;;;3.50;99.90;;;;;;5004278;28;20053;-88
2023/01/16 07:39:20;;;;;;;15.40;8.60;;;3.40;99.90;;;;;;5000499;28;20456;-88
2023/01/16 07:41:48;;;;;;;18.05;8.13;;;3.50;99.90;;;;;;5000171;28;20044;-87
2023/01/16 07:44:14;;;;;;;14.27;8.23;;;3.40;99.90;;;;;;5003339;28;20056;-87
2023/01/16 07:46:39;;;;;;;19.45;9.20;;;3.30;99.90;;;;;;5018314;28;20500;-88
2023/01/16 07:49:05;;;;;;;17.83;8.15;;;3.40;99.90;;;;;;5004660;28;20037;-89
2023/01/16 07:51:30;;;;;;;14.43;8.38;;;3.50;99.90;;;;;;5006175;28;20041;-87
2023/01/16 07:53:56;;;;;;;15.95;8.00;;;3.50;99.90;;;;;;5019854;28;20041;-88
2023/01/16 07:56:22;;;;;;;14.38;7.10;;;3.30;99.90;;;;;;5000894;28;20117;-88
2023/01/16 07:58:49;;;;;;;13.93;8.02;;;3.30;99.90;;;;;;5019250;28;20041;-88
2023/01/16 08:01:15;;;;;;;15.20;7.78;;;3.40;99.90;;;;;;5022724;28;20045;-89
2023/01/16 08:03:40;;;;;;;13.82;7.00;;;3.40;99.90;;;;;;5017739;28;20045;-88
2023/01/16 08:06:09;;;;;;;15.40;7.85;;;3.50;99.90;;;;;;5005614;28;20043;-87
2023/01/16 08:08:35;;;;;;;16.10;8.45;;;3.50;99.90;;;;;;5015565;28;20234;-88
2023/01/16 08:11:35;;;;;;;23.27;8.75;;;3.60;99.90;;;;;;5003509;28;20063;-88
2023/01/16 08:13:49;;;;;;;18.48;8.50;;;3.70;99.90;;;;;;5019488;28;20176;-88
2023/01/16 08:16:18;;;;;;;16.80;8.10;;;3.60;99.90;;;;;;5018134;28;20782;-88
2023/01/16 08:18:43;;;;;;;17.98;8.95;;;3.70;99.90;;;;;;5004423;28;20619;-88
2023/01/16 08:21:09;;;;;;;17.45;8.70;;;3.80;99.90;;;;;;5021021;28;20040;-87
2023/01/16 08:23:35;;;;;;;13.88;8.07;;;3.90;99.90;;;;;;5002867;28;20042;-87
2023/01/16 08:26:00;;;;;;;16.25;8.20;;;3.90;99.90;;;;;;5001343;28;20599;-87
2023/01/16 08:28:27;;;;;;;14.20;8.55;;;3.70;99.90;;;;;;5003964;28;20090;-88
2023/01/16 08:30:52;;;;;;;16.58;8.07;;;3.90;99.90;;;;;;5019796;28;20081;-88
2023/01/16 08:33:18;;;;;;;19.10;8.65;;;3.90;99.90;;;;;;5004833;28;20072;-87
2023/01/16 08:35:46;;;;;;;16.02;8.40;;;4.00;99.90;;;;;;5003375;28;20046;-88
2023/01/16 08:38:12;;;;;;;17.35;8.93;;;4.10;99.90;;;;;;5004494;28;20119;-87
2023/01/16 08:40:37;;;;;;;16.63;8.32;;;4.20;99.90;;;;;;5004591;28;20150;-87
2023/01/16 08:51:23;;;;;;;15.18;7.80;;;4.20;99.90;;;;;;5018406;28;20045;-87
2023/01/16 08:53:54;;;;;;;15.00;8.05;;;4.20;99.90;;;;;;5002020;28;20508;-87
2023/01/16 08:56:21;;;;;;;12.18;7.35;;;4.30;99.90;;;;;;5003466;28;20483;-89
2023/01/16 08:58:47;;;;;;;13.80;7.18;;;4.40;99.90;;;;;;5002714;28;20075;-88
2023/01/16 09:01:13;;;;;;;16.10;8.02;;;4.40;99.90;;;;;;5003386;28;20045;-88
2023/01/16 09:03:39;;;;;;;13.00;7.18;;;4.30;99.90;;;;;;5003353;28;20057;-87
2023/01/16 09:06:04;;;;;;;10.73;7.38;;;4.40;99.90;;;;;;5018630;28;20030;-88
2023/01/16 09:08:30;;;;;;;12.70;7.15;;;4.50;99.90;;;;;;5000057;28;20519;-87
2023/01/16 09:13:49;;;;;;;13.95;6.38;;;4.50;99.90;;;;;;5017988;28;20136;-88
2023/01/16 09:16:19;;;;;;;9.68;5.95;;;4.60;99.90;;;;;;5003799;28;20046;-87
2023/01/16 09:18:45;;;;;;;12.25;6.22;;;4.60;99.90;;;;;;5003962;28;20047;-88
2023/01/16 09:21:11;;;;;;;11.05;6.15;;;4.60;99.90;;;;;;5000633;28;20353;-88
2023/01/16 09:23:36;;;;;;;9.55;5.63;;;4.50;99.90;;;;;;5001362;28;20072;-88
2023/01/16 09:26:02;;;;;;;11.15;6.13;;;4.50;99.90;;;;;;5016193;28;20067;-87
2023/01/16 09:28:46;;;;;;;9.75;5.68;;;4.50;99.90;;;;;;5106762;27;1296082;-87
2023/01/16 09:31:15;;;;;;;8.85;6.15;;;4.50;99.90;;;;;;5119996;27;20257;-87
2023/01/16 09:33:41;;;;;;;9.27;5.28;;;4.50;99.90;;;;;;5114898;27;20077;-88
2023/01/16 09:36:07;;;;;;;8.05;5.38;;;4.60;99.90;;;;;;5118439;27;20041;-88
2023/01/16 09:38:33;;;;;;;8.93;5.03;;;4.60;99.90;;;;;;5126127;27;20042;-88
2023/01/16 09:40:59;;;;;;;11.23;5.32;;;4.60;99.90;;;;;;5116469;27;20035;-88
2023/01/16 09:43:46;;;;;;;8.88;4.68;;;4.70;99.90;;;;;;5131275;27;20496;-90
2023/01/16 09:46:19;;;;;;;7.78;4.95;;;4.70;99.90;;;;;;5112153;27;20065;-87
2023/01/16 09:49:16;;;;;;;7.10;4.50;;;4.70;99.90;;;;;;5131357;27;20054;-89
2023/01/16 09:58:34;;;;;;;10.48;4.90;;;4.70;99.90;;;;;;5119698;27;20522;-88
2023/01/16 10:00:18;;;;;;;7.32;4.65;;;4.70;99.90;;;;;;5133194;27;20049;-88
2023/01/16 10:02:43;;;;;;;6.72;4.35;;;4.80;99.90;;;;;;5118493;27;20327;-87
2023/01/16 10:05:12;;;;;;;8.65;4.50;;;4.60;99.90;;;;;;5121223;27;20041;-88
2023/01/16 10:08:17;;;;;;;9.23;4.70;;;4.70;99.90;;;;;;5136234;27;20054;-87
2023/01/16 10:11:06;;;;;;;7.70;4.72;;;4.70;99.90;;;;;;5131869;27;20313;-88
2023/01/16 10:13:52;;;;;;;7.57;4.10;;;4.70;99.90;;;;;;5118106;27;20046;-88
2023/01/16 10:16:35;;;;;;;7.60;4.00;;;4.70;99.90;;;;;;5103725;27;20307;-88
2023/01/16 10:19:08;;;;;;;8.68;3.58;;;4.60;99.90;;;;;;5132459;27;20030;-88
2023/01/16 10:22:15;;;;;;;7.35;3.70;;;4.70;99.90;;;;;;5114949;27;20382;-87
2023/01/16 10:25:14;;;;;;;10.38;3.67;;;4.80;99.90;;;;;;5036213;28;20124;-87
2023/01/16 10:28:27;;;;;;;6.40;3.95;;;4.90;99.90;;;;;;5018331;28;20058;-88
2023/01/16 10:31:45;;;;;;;7.70;3.60;;;4.80;99.90;;;;;;5148837;27;20125;-88
2023/01/16 10:34:30;;;;;;;7.13;3.30;;;4.80;99.90;;;;;;5082734;27;20088;-89
2023/01/16 10:36:58;;;;;;;6.40;3.30;;;4.90;99.90;;;;;;5120376;27;20038;-87
2023/01/16 10:39:30;;;;;;;7.18;3.25;;;4.90;99.90;;;;;;5123852;27;20412;-89
2023/01/16 10:50:47;;;;;;;7.10;3.00;;;4.80;99.90;;;;;;5118057;27;20039;-87
2023/01/16 10:53:13;;;;;;;5.13;3.05;;;4.80;99.90;;;;;;5119495;27;20058;-89
2023/01/16 10:55:43;;;;;;;6.40;2.67;;;4.60;99.90;;;;;;5103448;27;20049;-88
2023/01/16 10:58:30;;;;;;;5.57;2.83;;;4.50;99.90;;;;;;5101749;27;20035;-88
2023/01/16 11:01:12;;;;;;;4.25;2.95;;;4.50;99.90;;;;;;5104554;27;20043;-88
2023/01/16 11:03:44;;;;;;;6.15;2.60;;;4.60;99.90;;;;;;5120874;27;20047;-89
2023/01/16 11:06:30;;;;;;;4.45;2.25;;;4.50;99.90;;;;;;5121985;27;20039;-89
2023/01/16 11:09:05;;;;;;;4.25;2.28;;;4.30;99.90;;;;;;5097150;27;20495;-88
2023/01/16 11:20:35;;;;;;;4.78;2.15;;;4.40;99.90;;;;;;5119857;27;20486;-89
2023/01/16 11:23:16;;;;;;;4.32;2.33;;;4.50;99.90;;;;;;5122701;27;20113;-90
2023/01/16 11:25:44;;;;;;;2.40;2.10;;;4.50;99.90;;;;;;5100582;27;20145;-89
2023/01/16 11:28:16;;;;;;;4.72;2.63;;;4.30;99.90;;;;;;5101464;27;20051;-88
2023/01/16 11:30:45;;;;;;;3.92;2.38;;;4.30;99.90;;;;;;5098742;27;20875;-89
2023/01/16 11:33:24;;;;;;;4.68;2.45;;;4.50;99.90;;;;;;5119035;27;20031;-87
2023/01/16 11:35:56;;;;;;;3.67;2.45;;;4.40;99.90;;;;;;5099137;27;20125;-88
2023/01/16 11:38:24;;;;;;;3.50;2.38;;;4.30;99.90;;;;;;5105556;27;20425;-90
2023/01/16 11:40:52;;;;;;;4.63;2.35;;;4.50;99.90;;;;;;5099242;27;20034;-89
2023/01/16 11:46:38;;;;;;;3.42;2.35;;;4.50;99.90;;;;;;5114398;27;20426;-88
2023/01/16 11:49:16;;;;;;;3.72;2.40;;;4.30;99.90;;;;;;5105543;27;20248;-89
2023/01/16 11:51:42;;;;;;;3.30;2.50;;;4.40;99.90;;;;;;5096927;27;20075;-89
2023/01/16 11:54:14;;;;;;;3.22;2.20;;;4.40;99.90;;;;;;5101250;27;20074;-89
2023/01/16 11:57:01;;;;;;;4.82;2.90;;;4.40;99.90;;;;;;5114664;27;20076;-90
2023/01/16 12:00:06;;;;;;;3.70;2.60;;;4.50;99.90;;;;;;5098295;27;20189;-87
2023/01/16 12:03:08;;;;;;;3.80;2.50;;;4.50;99.90;;;;;;5101287;27;20054;-89
2023/01/16 12:05:55;;;;;;;4.28;2.40;;;4.50;99.90;;;;;;5115364;27;20067;-89
2023/01/16 12:08:52;;;;;;;3.65;2.55;;;4.50;99.90;;;;;;5099495;27;20039;-88
2023/01/16 12:11:37;;;;;;;4.65;2.30;;;4.50;99.90;;;;;;5100823;27;20045;-89
2023/01/16 12:14:21;;;;;;;3.25;2.55;;;4.60;99.90;;;;;;5117275;27;20132;-90
2023/01/16 12:17:09;;;;;;;4.40;2.93;;;4.50;99.90;;;;;;5103522;27;20050;-89
2023/01/16 12:20:06;;;;;;;3.72;2.55;;;4.40;99.90;;;;;;5097472;27;20598;-89
2023/01/16 12:22:47;;;;;;;4.20;2.80;;;4.60;99.90;;;;;;5099809;27;20137;-88
2023/01/16 12:25:38;;;;;;;3.97;2.85;;;4.60;99.90;;;;;;5100223;27;20035;-90
2023/01/16 12:28:16;;;;;;;5.07;2.90;;;4.70;99.90;;;;;;5115563;27;20489;-88
2023/01/16 12:34:06;;;;;;;5.55;2.90;;;4.60;99.90;;;;;;5046694;28;20040;-89
2023/01/16 12:36:59;;;;;;;5.60;3.00;;;4.80;99.90;;;;;;5092292;27;20395;-89
2023/01/16 12:39:44;;;;;;;4.85;2.92;;;4.70;99.90;;;;;;5100427;27;20574;-88
2023/01/16 12:45:25;;;;;;;5.65;3.10;;;4.70;99.90;;;;;;5116798;27;20347;-89
2023/01/16 12:48:12;;;;;;;4.18;3.15;;;4.80;99.90;;;;;;5100510;27;20431;-87
2023/01/16 12:50:47;;;;;;;6.65;3.60;;;4.90;99.90;;;;;;5107661;27;20104;-88
2023/01/16 12:53:32;;;;;;;;;;;5.00;99.90;;;;;;5095092;27;20050;-88
2023/01/16 12:55:57;;;;;;;4.35;3.17;;;4.90;99.90;;;;;;5101811;27;19919;-89
2023/01/16 12:58:29;;;;;;;6.72;3.50;;;5.20;99.90;;;;;;5101640;27;20359;-88
2023/01/16 13:01:09;;;;;;;7.03;3.40;;;5.10;99.90;;;;;;5097936;27;20076;-92
2023/01/16 13:03:58;;;;;;;5.78;3.47;;;4.90;99.90;;;;;;5101145;27;20512;-91
2023/01/16 13:06:45;;;;;;;8.02;3.28;;;4.90;99.90;;;;;;5098879;27;20039;-89
2023/01/16 13:09:35;;;;;;;5.43;3.30;;;5.10;99.90;;;;;;5099745;27;20035;-89
2023/01/16 13:14:58;;;;;;;4.00;2.85;;;5.00;99.90;;;;;;5119694;27;20597;-90
2023/01/16 13:17:55;;;;;;;6.43;2.78;;;4.90;99.90;;;;;;5105789;27;20144;-90
2023/01/16 13:20:23;;;;;;;2.97;2.67;;;4.90;99.90;;;;;;5117926;27;20039;-90
2023/01/16 13:23:23;;;;;;;3.53;2.80;;;5.00;99.90;;;;;;5100495;27;20042;-90
2023/01/16 13:25:59;;;;;;;5.45;3.20;;;5.10;99.90;;;;;;5102147;27;20039;-90
2023/01/16 13:28:30;;;;;;;5.05;3.42;;;5.00;99.90;;;;;;5095412;28;20139;-91
2023/01/16 13:31:02;;;;;;;6.07;3.47;;;4.90;99.90;;;;;;5098146;28;20511;-93
2023/01/16 13:33:39;;;;;;;4.20;3.08;;;5.20;99.90;;;;;;5097078;28;20035;-90
2023/01/16 13:36:47;;;;;;;4.50;3.00;;;5.00;99.90;;;;;;5115609;28;20043;-91
2023/01/16 13:39:50;;;;;;;4.80;3.20;;;5.10;99.90;;;;;;5057122;28;20258;-90
2023/01/16 13:42:18;;;;;;;5.97;3.00;;;5.10;99.90;;;;;;5091743;28;20043;-90
2023/01/16 13:47:39;;;;;;;4.43;3.33;;;5.20;99.90;;;;;;5117357;27;20047;-90
2023/01/16 13:50:16;;;;;;;5.40;3.40;;;5.30;99.90;;;;;;5097314;28;20107;-90
2023/01/16 13:52:43;;;;;;;6.50;3.53;;;5.20;99.90;;;;;;5097392;28;20043;-89
2023/01/16 13:55:22;;;;;;;5.05;3.42;;;5.10;99.90;;;;;;5094725;28;20532;-90
2023/01/16 13:57:51;;;;;;;6.47;3.33;;;5.20;99.90;;;;;;5092868;28;20124;-89
2023/01/16 14:00:19;;;;;;;4.75;3.47;;;5.30;99.90;;;;;;5094759;28;20035;-89
2023/01/16 14:02:59;;;;;;;4.63;3.38;;;5.30;99.90;;;;;;5095234;28;20505;-89
2023/01/16 14:05:40;;;;;;;6.78;3.50;;;5.30;99.90;;;;;;5096441;28;20506;-89
2023/01/16 14:11:35;;;;;;;7.82;3.80;;;5.40;99.90;;;;;;5113554;28;20095;-91
2023/01/16 14:17:06;;;;;;;5.35;3.42;;;5.40;99.90;;;;;;5115920;27;20043;-92
2023/01/16 14:20:01;;;;;;;4.63;3.55;;;5.40;99.90;;;;;;5120237;27;20039;-91
2023/01/16 14:25:07;;;;;;;5.35;3.10;;;5.40;99.90;;;;;;5115820;27;20363;-92
2023/01/16 14:27:39;;;;;;;5.93;3.20;;;5.20;99.90;;;;;;5096213;27;20051;-91
2023/01/16 14:30:28;;;;;;;4.85;3.60;;;5.30;99.90;;;;;;5101972;27;20031;-91
2023/01/16 14:32:57;;;;;;;5.95;3.30;;;5.30;99.90;;;;;;5099660;27;20039;-92
2023/01/16 14:35:30;;;;;;;4.75;2.95;;;5.20;99.90;;;;;;5110689;27;20039;-92
2023/01/16 14:38:27;;;;;;;5.03;3.15;;;5.30;99.90;;;;;;5097383;28;20317;-90